»·PEaware :: N21XG L52-L88

N21XG :: L52-L88

FLIGHT INFORMATION

Flight Status: Arrived
Operator: Privately registered:
United States
More flights under this callsign
Pilot: Logan D. (20254)
Aircraft: CESSNA 172 SKYHAWK
(C172)
More flights by this aircraft type
Origin: L52 Oceano Co
United States
Destination: L88 New Cuyama
United States
More flights between these airports :: More routes between these airports
Route: L52 WYNNR L88
File this flight plan on PilotEdge
Remarks:
Altitude:
(Current/Filed)
7,500ft
Speed:
(Current/Filed)
110kts
Departed: 10-Oct-19 03:11 PM
Arrived: 10-Oct-19 03:45 PM
Distance/Time
Traveled:
47nm/0:34
Distance/Time
To Go:
Arrived

Flight Plot

Page will automatically refresh every two minutes.


Map Options




Map Legend


Flown Route
Filed Route
Departure Airport
Arrival Airport
Navaid (VOR, NDB)
Fix

Horizontal Profiles

Position Reports

Time Latitude Longitude Heading Altitude Ground
Speed
10-Oct-19 14:54 35.103471 -120.624700 32 18ft 0kts
10-Oct-19 14:55 35.103471 -120.624700 32 18ft 0kts
10-Oct-19 14:56 35.103471 -120.624701 32 18ft 0kts
10-Oct-19 14:57 35.103471 -120.624700 32 18ft 0kts
10-Oct-19 14:58 35.103489 -120.625253 221 18ft 13kts
10-Oct-19 14:59 35.102642 -120.625390 132 18ft 0kts
10-Oct-19 15:00 35.102315 -120.624754 127 18ft 9kts
10-Oct-19 15:01 35.100627 -120.621593 123 18ft 15kts
10-Oct-19 15:02 35.099597 -120.619549 35 18ft 0kts
10-Oct-19 15:03 35.099597 -120.619549 35 18ft 0kts
10-Oct-19 15:04 35.099597 -120.619549 35 18ft 0kts
10-Oct-19 15:05 35.099603 -120.619544 36 18ft 0kts
10-Oct-19 15:06 35.099603 -120.619544 36 18ft 0kts
10-Oct-19 15:07 35.099603 -120.619544 36 18ft 0kts
10-Oct-19 15:08 35.099410 -120.619556 342 18ft 0kts
10-Oct-19 15:09 35.099561 -120.619487 32 18ft 0kts
10-Oct-19 15:10 35.104613 -120.627635 300 194ft 67kts
10-Oct-19 15:11 35.100359 -120.643205 183 1003ft 82kts
10-Oct-19 15:12 35.077956 -120.639748 144 1862ft 88kts
10-Oct-19 15:13 35.081223 -120.608693 78 2411ft 115kts
10-Oct-19 15:14 35.086701 -120.574404 54 3210ft 101kts
10-Oct-19 15:15 35.100894 -120.542567 65 3742ft 112kts
10-Oct-19 15:16 35.105422 -120.505031 81 4350ft 106kts
10-Oct-19 15:17 35.106967 -120.472028 80 5147ft 89kts
10-Oct-19 15:18 35.108240 -120.442122 80 5795ft 88kts
10-Oct-19 15:19 35.109458 -120.412165 80 6404ft 87kts
10-Oct-19 15:20 35.110628 -120.383123 79 6996ft 85kts
10-Oct-19 15:21 35.111937 -120.351113 80 7418ft 101kts
10-Oct-19 15:22 35.113332 -120.315310 82 7475ft 125kts
10-Oct-19 15:23 35.115005 -120.271820 82 7474ft 129kts
10-Oct-19 15:24 35.116718 -120.227726 82 7474ft 129kts
10-Oct-19 15:25 35.106937 -120.184717 107 7473ft 133kts
10-Oct-19 15:26 35.093009 -120.142567 108 7472ft 134kts
10-Oct-19 15:27 35.078840 -120.100055 108 7470ft 135kts
10-Oct-19 15:28 35.056144 -120.062570 124 7469ft 138kts
10-Oct-19 15:29 35.032539 -120.024557 124 7326ft 147kts
10-Oct-19 15:30 35.010195 -119.987491 124 6727ft 125kts
10-Oct-19 15:31 34.990602 -119.954336 124 6130ft 118kts
10-Oct-19 15:32 34.971793 -119.921746 124 5538ft 118kts
10-Oct-19 15:33 34.954985 -119.887204 111 5053ft 117kts
10-Oct-19 15:34 34.944205 -119.850104 110 5002ft 122kts
10-Oct-19 15:35 34.932526 -119.812248 105 5350ft 116kts
10-Oct-19 15:36 34.921361 -119.775702 101 5528ft 119kts
10-Oct-19 15:37 34.907536 -119.737008 113 5520ft 122kts
10-Oct-19 15:38 34.894288 -119.700241 109 4683ft 113kts
10-Oct-19 15:39 34.884397 -119.666290 105 4468ft 107kts
10-Oct-19 15:40 34.889363 -119.639104 3 4158ft 96kts
10-Oct-19 15:41 34.912913 -119.637365 329 3750ft 77kts
10-Oct-19 15:42 34.928021 -119.656993 299 2846ft 77kts
10-Oct-19 15:43 34.936023 -119.675692 293 2342ft 56kts
10-Oct-19 15:44 34.941276 -119.688817 296 2162ft 29kts
10-Oct-19 15:45 34.942349 -119.690684 209 2157ft 0kts
10-Oct-19 15:46 34.942349 -119.690684 209 2157ft 0kts
10-Oct-19 15:47 34.942349 -119.690684 209 2157ft 0kts
10-Oct-19 15:48 34.942350 -119.690684 209 2157ft 0kts

Navigation Log

Ident Type
Flight plan parsing failed, navigation log unavailable